createdAt,value
2017-10-19T00:00:45.885Z,790.50
2017-10-19T00:01:47.083Z,615.10
2017-10-19T00:02:46.331Z,733.00
2017-10-19T00:03:46.754Z,747.20
2017-10-19T00:04:46.999Z,784.20
2017-10-19T00:05:47.294Z,683.90
2017-10-19T00:06:47.534Z,1006.00
2017-10-19T00:07:46.408Z,827.60
2017-10-19T00:08:46.709Z,754.30
2017-10-19T00:09:47.056Z,656.10
2017-10-19T00:10:46.366Z,771.70
2017-10-19T00:11:47.018Z,713.60
2017-10-19T00:12:48.034Z,921.70
2017-10-19T00:13:47.558Z,713.30
2017-10-19T00:14:46.729Z,612.10
2017-10-19T00:15:46.943Z,574.00
2017-10-19T00:16:47.460Z,615.50
2017-10-19T00:17:46.777Z,512.10
2017-10-19T00:18:47.391Z,540.80
2017-10-19T00:19:46.364Z,599.10
2017-10-19T00:20:46.156Z,609.30
2017-10-19T00:21:46.647Z,620.30
2017-10-19T00:22:47.194Z,539.30
2017-10-19T00:23:46.907Z,568.50
2017-10-19T00:24:47.324Z,502.50
2017-10-19T00:25:46.480Z,522.20
2017-10-19T00:26:46.595Z,528.60
2017-10-19T00:27:47.154Z,513.30
2017-10-19T00:28:46.680Z,540.20
2017-10-19T00:29:46.790Z,540.10
2017-10-19T00:30:47.207Z,497.80
2017-10-19T00:31:46.446Z,569.10
2017-10-19T00:32:46.988Z,504.60
2017-10-19T00:33:47.113Z,437.80
2017-10-19T00:34:46.883Z,533.50
2017-10-19T00:35:47.578Z,505.70
2017-10-19T00:36:46.699Z,498.10
2017-10-19T00:37:47.193Z,551.00
2017-10-19T00:38:46.253Z,477.50
2017-10-19T00:39:46.567Z,455.90
2017-10-19T00:40:46.804Z,443.10
2017-10-19T00:41:47.211Z,509.40
2017-10-19T00:42:46.698Z,498.00
2017-10-19T00:43:47.200Z,571.90
2017-10-19T00:44:46.487Z,470.40
2017-10-19T00:45:46.876Z,657.10
2017-10-19T00:46:47.973Z,432.90
2017-10-19T00:47:47.235Z,459.50
2017-10-19T00:48:46.893Z,508.10
2017-10-19T00:49:47.377Z,494.10
2017-10-19T00:50:46.965Z,452.40
2017-10-19T00:51:47.929Z,444.90
2017-10-19T00:52:47.267Z,385.70
2017-10-19T00:53:46.368Z,408.10
2017-10-19T00:54:46.514Z,426.70
2017-10-19T00:55:47.029Z,417.40
2017-10-19T00:56:47.420Z,402.00
2017-10-19T00:57:46.944Z,383.10
2017-10-19T00:58:47.141Z,390.10
2017-10-19T00:59:46.409Z,384.40
2017-10-19T01:00:46.914Z,360.80
2017-10-19T01:01:47.738Z,373.20
2017-10-19T01:02:46.910Z,308.40
2017-10-19T01:03:47.240Z,335.10
2017-10-19T01:04:46.768Z,342.40
2017-10-19T01:05:46.774Z,298.80
2017-10-19T01:06:46.986Z,344.10
2017-10-19T01:07:47.053Z,343.20
2017-10-19T01:08:46.150Z,326.40
2017-10-19T01:09:46.163Z,338.40
2017-10-19T01:10:46.720Z,314.90
2017-10-19T01:11:47.634Z,309.40
2017-10-19T01:12:47.247Z,325.60
2017-10-19T01:13:46.688Z,325.70
2017-10-19T01:14:47.101Z,321.60
2017-10-19T01:15:46.879Z,319.10
2017-10-19T01:16:47.458Z,300.70
2017-10-19T01:17:46.610Z,293.10
2017-10-19T01:18:47.236Z,288.60
2017-10-19T01:19:46.776Z,294.70
2017-10-19T01:20:47.371Z,268.50
2017-10-19T01:21:46.284Z,292.50
2017-10-19T01:22:46.643Z,314.10
2017-10-19T01:23:47.108Z,302.50
2017-10-19T01:24:46.862Z,298.30
2017-10-19T01:25:46.883Z,291.10
2017-10-19T01:26:47.360Z,292.20
2017-10-19T01:27:46.983Z,280.00
2017-10-19T01:28:47.153Z,278.90
2017-10-19T01:29:47.074Z,270.70
2017-10-19T01:30:46.652Z,265.10
2017-10-19T01:31:46.954Z,275.40
2017-10-19T01:32:47.016Z,289.20
2017-10-19T01:33:47.518Z,251.80
2017-10-19T01:34:47.014Z,278.30
2017-10-19T01:35:47.468Z,282.00
2017-10-19T01:36:47.057Z,254.80
2017-10-19T01:37:46.568Z,271.60
2017-10-19T01:38:46.568Z,270.30
2017-10-19T01:39:46.908Z,277.10
2017-10-19T01:40:47.021Z,277.40
2017-10-19T01:41:47.140Z,285.20
2017-10-19T01:42:46.803Z,272.60
2017-10-19T01:43:46.937Z,257.40
2017-10-19T01:44:46.886Z,254.00
2017-10-19T01:45:46.778Z,229.60
2017-10-19T01:46:47.308Z,252.70
2017-10-19T01:47:46.297Z,264.70
2017-10-19T01:48:47.413Z,238.20
2017-10-19T01:49:47.092Z,238.10
2017-10-19T01:50:46.673Z,237.50
2017-10-19T01:51:46.761Z,231.20
2017-10-19T01:52:47.142Z,241.30
2017-10-19T01:53:45.747Z,244.50
2017-10-19T01:54:46.791Z,234.80
2017-10-19T01:55:46.414Z,242.00
2017-10-19T01:56:46.626Z,222.80
2017-10-19T01:57:46.769Z,236.20
2017-10-19T01:58:47.565Z,243.50
2017-10-19T01:59:46.635Z,236.10
2017-10-19T02:00:46.815Z,219.30
2017-10-19T02:01:46.828Z,230.60
2017-10-19T02:02:46.614Z,220.10
2017-10-19T02:03:46.446Z,239.50
2017-10-19T02:04:46.254Z,238.50
2017-10-19T02:05:46.604Z,215.30
2017-10-19T02:06:46.647Z,203.70
2017-10-19T02:07:46.516Z,230.30
2017-10-19T02:08:46.705Z,226.30
2017-10-19T02:09:46.440Z,217.60
2017-10-19T02:10:46.173Z,225.60
2017-10-19T02:11:46.110Z,238.40
2017-10-19T02:12:46.152Z,228.50
2017-10-19T02:13:45.992Z,226.20
2017-10-19T02:14:46.002Z,210.60
2017-10-19T02:15:45.916Z,199.70
2017-10-19T02:16:47.217Z,201.30
2017-10-19T02:17:46.747Z,224.40
2017-10-19T02:18:46.655Z,218.40
2017-10-19T02:19:46.765Z,233.30
2017-10-19T02:20:46.553Z,211.80
2017-10-19T02:21:46.692Z,220.50
2017-10-19T02:22:46.851Z,217.00
2017-10-19T02:23:46.607Z,208.80
2017-10-19T02:24:47.024Z,202.10
2017-10-19T02:25:46.120Z,214.30
2017-10-19T02:26:46.172Z,202.60
2017-10-19T02:27:46.521Z,203.20
2017-10-19T02:28:47.172Z,193.30
2017-10-19T02:29:45.909Z,206.20
2017-10-19T02:30:46.075Z,204.00
2017-10-19T02:31:46.278Z,211.20
2017-10-19T02:32:46.096Z,200.20
2017-10-19T02:33:46.736Z,191.90
2017-10-19T02:34:47.045Z,208.40
2017-10-19T02:35:46.368Z,209.00
2017-10-19T02:36:46.130Z,198.80
2017-10-19T02:37:46.282Z,191.40
2017-10-19T02:38:47.421Z,198.90
2017-10-19T02:39:46.120Z,197.20
2017-10-19T02:40:46.425Z,185.80
2017-10-19T02:41:46.573Z,181.80
2017-10-19T02:42:46.471Z,174.00
2017-10-19T02:43:46.568Z,183.80
2017-10-19T02:44:46.815Z,177.80
2017-10-19T02:45:46.528Z,171.10
2017-10-19T02:46:46.337Z,173.10
2017-10-19T02:47:46.074Z,182.00
2017-10-19T02:48:45.874Z,166.50
2017-10-19T02:49:46.032Z,174.40
2017-10-19T02:50:46.304Z,173.30
2017-10-19T02:51:46.362Z,174.60
2017-10-19T02:52:46.811Z,168.20
2017-10-19T02:53:47.141Z,184.30
2017-10-19T02:54:46.646Z,176.90
2017-10-19T02:55:47.342Z,180.00
2017-10-19T02:56:46.072Z,178.50
2017-10-19T02:57:46.331Z,179.10
2017-10-19T02:58:45.888Z,159.60
2017-10-19T02:59:46.531Z,165.50
2017-10-19T03:00:46.660Z,167.80
2017-10-19T03:01:46.757Z,173.70
2017-10-19T03:02:46.316Z,186.20
2017-10-19T03:03:46.112Z,167.50
2017-10-19T03:04:45.886Z,172.00
2017-10-19T03:05:46.894Z,163.70
2017-10-19T03:06:45.696Z,163.80
2017-10-19T03:07:47.358Z,166.00
2017-10-19T03:08:46.211Z,167.60
2017-10-19T03:09:46.469Z,156.10
2017-10-19T03:10:46.248Z,158.10
2017-10-19T03:11:45.888Z,165.00
2017-10-19T03:12:46.595Z,159.80
2017-10-19T03:13:47.051Z,153.20
2017-10-19T03:14:45.988Z,166.70
2017-10-19T03:15:45.721Z,170.80
2017-10-19T03:16:46.272Z,169.00
2017-10-19T03:17:45.957Z,168.90
2017-10-19T03:18:45.790Z,177.70
2017-10-19T03:19:46.934Z,167.90
2017-10-19T03:20:47.020Z,163.10
2017-10-19T03:21:46.254Z,159.30
2017-10-19T03:22:46.686Z,147.90
2017-10-19T03:23:46.974Z,159.00
2017-10-19T03:24:45.837Z,152.60
2017-10-19T03:25:46.966Z,161.20
2017-10-19T03:26:46.555Z,152.00
2017-10-19T03:27:46.274Z,155.10
2017-10-19T03:28:46.051Z,162.80
2017-10-19T03:29:46.176Z,159.30
2017-10-19T03:30:45.879Z,161.80
2017-10-19T03:31:46.910Z,162.80
2017-10-19T03:32:46.111Z,164.40
2017-10-19T03:33:46.538Z,166.20
2017-10-19T03:34:46.308Z,168.30
2017-10-19T03:35:46.022Z,170.70
2017-10-19T03:36:46.651Z,164.00
2017-10-19T03:37:46.745Z,161.40
2017-10-19T03:38:46.935Z,150.10
2017-10-19T03:39:46.106Z,158.60
2017-10-19T03:40:46.450Z,165.30
2017-10-19T03:41:46.678Z,143.30
2017-10-19T03:42:46.704Z,151.80
2017-10-19T03:43:46.832Z,149.00
2017-10-19T03:44:46.975Z,161.10
2017-10-19T03:45:45.706Z,159.40
2017-10-19T03:46:46.966Z,156.70
2017-10-19T03:47:46.167Z,150.50
2017-10-19T03:48:46.072Z,157.10
2017-10-19T03:49:46.142Z,155.10
2017-10-19T03:50:46.055Z,152.20
2017-10-19T03:51:45.859Z,148.60
2017-10-19T03:52:46.314Z,151.60
2017-10-19T03:53:46.370Z,159.90
2017-10-19T03:54:46.412Z,146.70
2017-10-19T03:55:46.121Z,147.30
2017-10-19T03:56:46.371Z,149.50
2017-10-19T03:57:46.145Z,147.40
2017-10-19T03:58:45.826Z,143.70
2017-10-19T03:59:46.781Z,140.70
2017-10-19T04:00:47.037Z,156.50
2017-10-19T04:01:47.154Z,136.60
2017-10-19T04:02:45.907Z,143.90
2017-10-19T04:03:45.641Z,146.10
2017-10-19T04:04:46.934Z,143.70
2017-10-19T04:05:46.112Z,137.00
2017-10-19T04:06:45.774Z,142.70
2017-10-19T04:07:46.550Z,149.40
2017-10-19T04:08:46.658Z,133.40
2017-10-19T04:09:46.899Z,136.50
2017-10-19T04:10:46.901Z,148.00
2017-10-19T04:11:47.077Z,136.90
2017-10-19T04:12:45.782Z,153.90
2017-10-19T04:13:46.625Z,151.30
2017-10-19T04:14:46.414Z,143.40
2017-10-19T04:15:46.152Z,150.20
2017-10-19T04:16:46.694Z,154.60
2017-10-19T04:17:46.803Z,154.40
2017-10-19T04:18:46.618Z,150.30
2017-10-19T04:19:46.350Z,142.30
2017-10-19T04:20:46.040Z,142.80
2017-10-19T04:21:46.099Z,147.60
2017-10-19T04:22:46.221Z,159.10
2017-10-19T04:23:45.844Z,153.10
2017-10-19T04:24:45.715Z,149.00
2017-10-19T04:25:46.381Z,141.90
2017-10-19T04:26:47.277Z,150.90
2017-10-19T04:27:46.324Z,139.10
2017-10-19T04:28:46.415Z,149.90
2017-10-19T04:29:46.803Z,149.40
2017-10-19T04:30:46.953Z,151.20
2017-10-19T04:31:46.170Z,135.00
2017-10-19T04:32:46.635Z,137.80
2017-10-19T04:33:46.623Z,141.90
2017-10-19T04:34:46.419Z,135.60
2017-10-19T04:35:46.854Z,130.00
2017-10-19T04:36:46.781Z,138.00
2017-10-19T04:37:46.565Z,136.00
2017-10-19T04:38:47.178Z,130.60
2017-10-19T04:39:46.349Z,129.90
2017-10-19T04:40:46.464Z,137.60
2017-10-19T04:41:47.848Z,130.90
2017-10-19T04:42:48.450Z,126.80
2017-10-19T04:43:46.586Z,139.20
2017-10-19T04:44:46.478Z,125.70
2017-10-19T04:45:46.729Z,123.90
2017-10-19T04:46:46.459Z,126.20
2017-10-19T04:47:46.800Z,115.70
2017-10-19T04:48:46.419Z,131.10
2017-10-19T04:49:46.219Z,124.50
2017-10-19T04:50:46.595Z,122.70
2017-10-19T04:51:46.741Z,128.30
2017-10-19T04:52:46.579Z,122.90
2017-10-19T04:53:46.519Z,128.20
2017-10-19T04:54:46.706Z,123.20
2017-10-19T04:55:46.813Z,129.00
2017-10-19T04:56:46.617Z,135.00
2017-10-19T04:57:46.676Z,132.60
2017-10-19T04:58:47.450Z,139.50
2017-10-19T04:59:46.064Z,141.30
2017-10-19T05:00:46.080Z,129.70
2017-10-19T05:01:47.853Z,129.80
2017-10-19T05:02:46.203Z,140.10
2017-10-19T05:03:45.886Z,143.60
2017-10-19T05:04:46.192Z,142.10
2017-10-19T05:05:46.099Z,135.60
2017-10-19T05:06:46.078Z,143.50
2017-10-19T05:07:45.745Z,141.70
2017-10-19T05:08:45.866Z,155.20
2017-10-19T05:09:45.680Z,165.60
2017-10-19T05:10:46.884Z,156.30
2017-10-19T05:11:46.312Z,154.80
2017-10-19T05:12:45.522Z,156.80
2017-10-19T05:13:46.717Z,158.20
2017-10-19T05:14:46.413Z,143.10
2017-10-19T05:15:46.513Z,135.40
2017-10-19T05:16:47.711Z,134.20
2017-10-19T05:17:46.563Z,138.00
2017-10-19T05:18:46.810Z,137.80
2017-10-19T05:19:46.836Z,140.40
2017-10-19T05:20:46.444Z,135.30
2017-10-19T05:21:46.696Z,136.60
2017-10-19T05:22:46.844Z,137.30
2017-10-19T05:23:46.807Z,136.80
2017-10-19T05:24:45.720Z,125.60
2017-10-19T05:25:46.341Z,129.90
2017-10-19T05:26:46.095Z,126.20
2017-10-19T05:27:46.154Z,127.10
2017-10-19T05:28:46.412Z,117.70
2017-10-19T05:29:46.472Z,133.90
2017-10-19T05:30:46.770Z,128.50
2017-10-19T05:31:47.015Z,138.40
2017-10-19T05:32:46.123Z,138.00
2017-10-19T05:33:46.812Z,142.20
2017-10-19T05:34:45.628Z,128.40
2017-10-19T05:35:46.925Z,135.60
2017-10-19T05:36:45.682Z,136.20
2017-10-19T05:37:46.500Z,131.90
2017-10-19T05:38:46.972Z,134.20
2017-10-19T05:39:45.892Z,138.90
2017-10-19T05:40:46.097Z,136.50
2017-10-19T05:41:46.491Z,138.30
2017-10-19T05:42:46.363Z,132.60
2017-10-19T05:43:47.152Z,135.90
2017-10-19T05:44:46.387Z,133.90
2017-10-19T05:45:47.180Z,128.20
2017-10-19T05:46:46.617Z,129.50
2017-10-19T05:47:46.985Z,136.40
2017-10-19T05:48:46.464Z,122.90
2017-10-19T05:49:47.620Z,130.20
2017-10-19T05:50:45.743Z,131.90
2017-10-19T05:51:46.059Z,132.50
2017-10-19T05:52:46.255Z,131.80
2017-10-19T05:53:46.551Z,124.10
2017-10-19T05:54:45.819Z,119.00
2017-10-19T05:55:46.716Z,129.60
2017-10-19T05:56:46.762Z,121.90
2017-10-19T05:57:46.179Z,125.10
2017-10-19T05:58:46.967Z,140.50
2017-10-19T05:59:46.362Z,138.10
2017-10-19T06:00:47.483Z,136.70
2017-10-19T06:01:46.992Z,136.30
2017-10-19T06:02:45.863Z,136.80
2017-10-19T06:03:45.934Z,138.20
2017-10-19T06:04:46.279Z,138.70
2017-10-19T06:05:45.988Z,136.10
2017-10-19T06:06:46.375Z,144.40
2017-10-19T06:07:46.904Z,129.30
2017-10-19T06:08:45.762Z,126.70
2017-10-19T06:09:45.705Z,131.40
2017-10-19T06:10:46.144Z,132.60
2017-10-19T06:11:46.836Z,137.70
2017-10-19T06:12:46.452Z,132.40
2017-10-19T06:13:45.961Z,121.50
2017-10-19T06:14:46.039Z,124.60
2017-10-19T06:15:46.727Z,135.70
2017-10-19T06:16:45.647Z,133.30
2017-10-19T06:17:46.946Z,127.30
2017-10-19T06:18:46.288Z,136.20
2017-10-19T06:19:46.202Z,122.40
2017-10-19T06:20:46.637Z,119.60
2017-10-19T06:21:46.943Z,121.90
2017-10-19T06:22:46.028Z,126.00
2017-10-19T06:23:46.343Z,120.50
2017-10-19T06:24:46.190Z,133.40
2017-10-19T06:25:46.630Z,125.50
2017-10-19T06:26:46.697Z,129.70
2017-10-19T06:27:46.026Z,121.50
2017-10-19T06:28:46.938Z,117.10
2017-10-19T06:29:46.514Z,127.90
2017-10-19T06:30:46.542Z,109.10
2017-10-19T06:31:47.140Z,111.10
2017-10-19T06:32:46.710Z,108.10
2017-10-19T06:33:45.812Z,114.80
2017-10-19T06:34:46.725Z,113.60
2017-10-19T06:35:46.377Z,111.90
2017-10-19T06:36:46.427Z,109.60
2017-10-19T06:37:46.305Z,111.20
2017-10-19T06:38:46.418Z,109.10
2017-10-19T06:39:46.779Z,110.90
2017-10-19T06:40:45.795Z,116.70
2017-10-19T06:41:46.330Z,101.20
2017-10-19T06:42:46.015Z,108.20
2017-10-19T06:43:46.637Z,110.60
2017-10-19T06:44:46.810Z,103.20
2017-10-19T06:45:46.324Z,110.00
2017-10-19T06:46:46.833Z,99.60
2017-10-19T06:47:45.855Z,98.80
2017-10-19T06:48:47.112Z,98.20
2017-10-19T06:49:47.219Z,89.20
2017-10-19T06:50:46.699Z,93.60
2017-10-19T06:51:46.584Z,94.00
2017-10-19T06:52:46.630Z,89.40
2017-10-19T06:53:46.177Z,98.70
2017-10-19T06:54:46.724Z,101.80
2017-10-19T06:55:46.334Z,102.20
2017-10-19T06:56:46.345Z,101.80
2017-10-19T06:57:46.279Z,100.50
2017-10-19T06:58:46.344Z,98.40
2017-10-19T06:59:46.594Z,94.70
2017-10-19T07:00:46.540Z,94.60
2017-10-19T07:01:46.202Z,94.40
2017-10-19T07:02:46.529Z,97.40
2017-10-19T07:03:46.556Z,98.10
2017-10-19T07:04:46.293Z,92.90
2017-10-19T07:05:46.905Z,86.00
2017-10-19T07:06:46.611Z,81.50
2017-10-19T07:07:46.584Z,84.40
2017-10-19T07:08:46.788Z,82.50
2017-10-19T07:09:46.082Z,82.60
2017-10-19T07:10:46.570Z,83.90
2017-10-19T07:11:47.060Z,83.00
2017-10-19T07:12:45.956Z,84.90
2017-10-19T07:13:46.450Z,90.60
2017-10-19T07:14:46.522Z,85.80
2017-10-19T07:15:46.800Z,85.90
2017-10-19T07:16:46.136Z,93.60
2017-10-19T07:17:46.185Z,79.60
2017-10-19T07:18:46.784Z,85.30
2017-10-19T07:19:46.084Z,78.90
2017-10-19T07:20:46.219Z,87.00
2017-10-19T07:21:46.603Z,88.90
2017-10-19T07:22:46.018Z,78.50
2017-10-19T07:23:46.029Z,80.60
2017-10-19T07:24:46.971Z,80.10
2017-10-19T07:25:46.959Z,73.70
2017-10-19T07:26:46.370Z,81.00
2017-10-19T07:27:46.513Z,79.50
2017-10-19T07:28:46.435Z,77.70
2017-10-19T07:29:46.417Z,76.50
2017-10-19T07:30:46.798Z,74.40
2017-10-19T07:31:45.769Z,76.40
2017-10-19T07:32:46.292Z,73.40
2017-10-19T07:33:46.196Z,79.70
2017-10-19T07:34:46.219Z,74.70
2017-10-19T07:35:46.482Z,74.70
2017-10-19T07:36:46.857Z,67.60
2017-10-19T07:37:45.770Z,66.80
2017-10-19T07:38:45.713Z,71.20
2017-10-19T07:39:45.996Z,69.10
2017-10-19T07:40:46.489Z,69.50
2017-10-19T07:41:46.289Z,75.10
2017-10-19T07:42:46.234Z,75.40
2017-10-19T07:43:46.328Z,77.40
2017-10-19T07:44:46.915Z,64.10
2017-10-19T07:45:46.192Z,68.10
2017-10-19T07:46:45.802Z,69.10
2017-10-19T07:47:46.049Z,68.80
2017-10-19T07:48:46.534Z,71.70
2017-10-19T07:49:46.038Z,71.40
2017-10-19T07:50:50.241Z,70.60
2017-10-19T07:51:46.983Z,66.60
2017-10-19T07:52:46.300Z,72.30
2017-10-19T07:53:46.851Z,65.40
2017-10-19T07:54:46.426Z,72.30
2017-10-19T07:55:46.978Z,69.80
2017-10-19T07:56:46.190Z,71.50
2017-10-19T07:57:46.067Z,70.40
2017-10-19T07:58:46.884Z,64.40
2017-10-19T07:59:45.914Z,64.00
2017-10-19T08:00:45.934Z,64.50
2017-10-19T08:01:46.521Z,64.20
2017-10-19T08:02:45.715Z,65.40
2017-10-19T08:03:45.696Z,58.90
2017-10-19T08:04:45.716Z,62.20
2017-10-19T08:05:46.267Z,62.00
2017-10-19T08:06:46.534Z,59.00
2017-10-19T08:07:46.816Z,62.70
2017-10-19T08:08:46.252Z,55.80
2017-10-19T08:09:46.646Z,60.90
2017-10-19T08:10:47.052Z,60.00
2017-10-19T08:11:46.375Z,56.60
2017-10-19T08:12:46.702Z,59.30
2017-10-19T08:13:46.772Z,61.60
2017-10-19T08:14:45.830Z,59.20
2017-10-19T08:16:16.955Z,59.60
2017-10-19T08:16:46.715Z,57.50
2017-10-19T08:17:47.019Z,57.30
2017-10-19T08:18:46.607Z,57.20
2017-10-19T08:19:46.227Z,60.30
2017-10-19T08:20:46.970Z,56.00
2017-10-19T08:21:46.466Z,55.50
2017-10-19T08:22:46.657Z,50.30
2017-10-19T08:23:45.855Z,50.90
2017-10-19T08:24:46.288Z,55.30
2017-10-19T08:25:46.381Z,54.10
2017-10-19T08:26:47.089Z,53.70
2017-10-19T08:27:46.748Z,49.00
2017-10-19T08:28:45.952Z,51.20
2017-10-19T08:29:45.997Z,55.70
2017-10-19T08:30:46.651Z,55.90
2017-10-19T08:31:45.803Z,48.50
2017-10-19T08:32:46.550Z,48.20
2017-10-19T08:33:46.183Z,50.00
2017-10-19T08:34:47.155Z,52.00
2017-10-19T08:35:46.380Z,48.90
2017-10-19T08:36:46.972Z,51.10
2017-10-19T08:37:46.265Z,44.40
2017-10-19T08:38:46.273Z,45.50
2017-10-19T08:39:46.759Z,42.60
2017-10-19T08:40:46.425Z,36.80
2017-10-19T08:41:46.794Z,39.30
2017-10-19T08:42:46.308Z,37.50
2017-10-19T08:43:46.683Z,37.30
2017-10-19T08:44:46.348Z,39.10
2017-10-19T08:45:47.023Z,36.60
2017-10-19T08:46:46.784Z,38.50
2017-10-19T08:47:46.564Z,38.50
2017-10-19T08:48:45.847Z,33.30
2017-10-19T08:49:46.805Z,35.50
2017-10-19T08:50:46.463Z,32.40
2017-10-19T08:51:46.804Z,34.00
2017-10-19T08:52:46.116Z,27.20
2017-10-19T08:53:46.331Z,29.70
2017-10-19T08:54:47.161Z,31.00
2017-10-19T08:55:46.278Z,27.20
2017-10-19T08:56:46.353Z,28.80
2017-10-19T08:57:46.832Z,29.60
2017-10-19T08:58:46.623Z,30.30
2017-10-19T08:59:46.745Z,28.30
2017-10-19T09:00:46.167Z,29.40
2017-10-19T09:01:46.343Z,30.00
2017-10-19T09:02:47.177Z,29.40
2017-10-19T09:03:46.614Z,26.50
2017-10-19T09:04:46.728Z,24.30
2017-10-19T09:05:46.306Z,25.80
2017-10-19T09:06:46.140Z,31.20
2017-10-19T09:07:46.840Z,28.40
2017-10-19T09:08:46.474Z,29.70
2017-10-19T09:09:46.299Z,31.60
2017-10-19T09:10:45.889Z,27.40
2017-10-19T09:11:46.378Z,26.80
2017-10-19T09:12:47.379Z,24.30
2017-10-19T09:13:46.154Z,28.40
2017-10-19T09:14:46.871Z,32.50
2017-10-19T09:15:46.764Z,27.50
2017-10-19T09:16:46.399Z,26.60
2017-10-19T09:17:45.931Z,27.20
2017-10-19T09:18:46.460Z,25.80
2017-10-19T09:19:47.071Z,22.70
2017-10-19T09:20:46.818Z,28.10
2017-10-19T09:21:46.132Z,30.00
2017-10-19T09:22:46.010Z,28.50
2017-10-19T09:23:47.169Z,26.40
2017-10-19T09:24:46.543Z,27.70
2017-10-19T09:25:47.043Z,24.80
2017-10-19T09:26:46.737Z,21.50
2017-10-19T09:27:46.347Z,26.30
2017-10-19T09:28:46.765Z,27.20
2017-10-19T09:29:46.256Z,23.40
2017-10-19T09:30:47.234Z,22.20
2017-10-19T09:31:46.850Z,22.70
2017-10-19T09:32:46.482Z,21.90
2017-10-19T09:33:46.200Z,25.70
2017-10-19T09:34:45.985Z,24.90
2017-10-19T09:35:46.663Z,23.20
2017-10-19T09:36:45.864Z,24.00
2017-10-19T09:37:46.166Z,22.90
2017-10-19T09:38:46.793Z,22.50
2017-10-19T09:39:46.282Z,30.40
2017-10-19T09:40:46.604Z,21.80
2017-10-19T09:41:45.797Z,23.70
2017-10-19T09:42:46.160Z,20.40
2017-10-19T09:43:46.529Z,23.00
2017-10-19T09:44:46.526Z,24.10
2017-10-19T09:45:45.583Z,24.80
2017-10-19T09:46:46.288Z,25.50
2017-10-19T09:47:46.320Z,22.20
2017-10-19T09:48:45.570Z,24.30
2017-10-19T09:49:45.612Z,23.90
2017-10-19T09:50:46.127Z,27.30
2017-10-19T09:51:46.979Z,24.80
2017-10-19T09:52:46.769Z,22.70
2017-10-19T09:53:46.389Z,21.80
2017-10-19T09:54:46.277Z,23.30
2017-10-19T09:55:46.960Z,24.90
2017-10-19T09:56:47.393Z,24.90
2017-10-19T09:57:46.497Z,22.70
2017-10-19T09:58:45.608Z,31.60
2017-10-19T09:59:45.830Z,27.30
2017-10-19T10:00:46.499Z,25.70
2017-10-19T10:01:46.772Z,24.90
2017-10-19T10:02:45.928Z,25.00
2017-10-19T10:03:46.358Z,24.90
2017-10-19T10:04:46.781Z,20.80
2017-10-19T10:05:46.350Z,23.90
2017-10-19T10:06:46.906Z,21.30
2017-10-19T10:07:46.202Z,27.60
2017-10-19T10:08:46.963Z,22.40
2017-10-19T10:09:46.544Z,23.50
2017-10-19T10:10:46.868Z,21.60
2017-10-19T10:11:46.476Z,24.60
2017-10-19T10:12:46.688Z,28.20
2017-10-19T10:13:46.208Z,21.40
2017-10-19T10:14:45.666Z,24.60
2017-10-19T10:15:46.242Z,23.70
2017-10-19T10:16:46.320Z,22.10
2017-10-19T10:17:47.002Z,25.60
2017-10-19T10:18:46.535Z,22.10
2017-10-19T10:19:45.624Z,23.70
2017-10-19T10:20:46.403Z,21.70
2017-10-19T10:21:46.888Z,24.50
2017-10-19T10:22:46.113Z,29.90
2017-10-19T10:23:46.273Z,22.10
2017-10-19T10:24:45.884Z,23.60
2017-10-19T10:25:45.619Z,27.50
2017-10-19T10:26:46.160Z,22.30
2017-10-19T10:27:45.652Z,24.80
2017-10-19T10:28:46.296Z,23.20
2017-10-19T10:29:46.930Z,22.50
2017-10-19T10:30:45.923Z,25.70
2017-10-19T10:31:46.190Z,22.30
2017-10-19T10:32:46.666Z,22.40
2017-10-19T10:33:46.018Z,23.40
2017-10-19T10:34:46.212Z,25.80
2017-10-19T10:35:47.895Z,23.70
2017-10-19T10:36:46.734Z,24.30
2017-10-19T10:37:46.346Z,27.00
2017-10-19T10:38:45.826Z,23.60
2017-10-19T10:39:46.311Z,23.20
2017-10-19T10:40:45.566Z,20.40
2017-10-19T10:41:45.618Z,22.70
2017-10-19T10:42:46.163Z,21.40
2017-10-19T10:43:46.759Z,26.00
2017-10-19T10:44:46.238Z,26.00
2017-10-19T10:45:46.622Z,24.60
2017-10-19T10:46:45.676Z,22.40
2017-10-19T10:47:46.630Z,24.00
2017-10-19T10:48:45.892Z,24.70
2017-10-19T10:49:46.103Z,19.80
2017-10-19T10:50:46.149Z,24.60
2017-10-19T10:51:46.566Z,21.00
2017-10-19T10:52:46.027Z,19.80
2017-10-19T10:53:46.440Z,22.00
2017-10-19T10:54:46.270Z,20.60
2017-10-19T10:55:46.789Z,24.70
2017-10-19T10:56:46.116Z,22.10
2017-10-19T10:57:46.651Z,20.90
2017-10-19T10:58:46.155Z,22.30
2017-10-19T10:59:46.516Z,20.00
2017-10-19T11:00:46.019Z,20.10
2017-10-19T11:01:46.660Z,24.40
2017-10-19T11:02:46.225Z,21.30
2017-10-19T11:03:46.682Z,20.20
2017-10-19T11:04:46.278Z,19.20
2017-10-19T11:05:46.381Z,20.90
2017-10-19T11:06:47.144Z,20.10
2017-10-19T11:07:46.773Z,21.30
2017-10-19T11:08:46.179Z,20.10
2017-10-19T11:09:46.477Z,19.20
2017-10-19T11:10:46.567Z,19.60
2017-10-19T11:11:46.002Z,22.20
2017-10-19T11:12:47.068Z,19.30
2017-10-19T11:13:46.809Z,22.10
2017-10-19T11:14:46.273Z,22.40
2017-10-19T11:15:46.303Z,20.00
2017-10-19T11:16:46.943Z,19.70
2017-10-19T11:17:46.559Z,22.30
2017-10-19T11:18:45.721Z,21.30
2017-10-19T11:19:45.879Z,21.30
2017-10-19T11:20:46.299Z,22.60
2017-10-19T11:21:46.873Z,18.20
2017-10-19T11:22:46.327Z,19.30
2017-10-19T11:23:46.734Z,21.90
2017-10-19T11:24:46.242Z,21.70
2017-10-19T11:25:46.329Z,21.60
2017-10-19T11:26:46.659Z,22.70
2017-10-19T11:27:46.429Z,19.60
2017-10-19T11:28:45.947Z,19.10
2017-10-19T11:29:46.454Z,19.90
2017-10-19T11:30:46.927Z,22.00
2017-10-19T11:31:46.007Z,20.10
2017-10-19T11:32:46.523Z,21.30
2017-10-19T11:33:45.582Z,21.80
2017-10-19T11:34:46.009Z,21.20
2017-10-19T11:35:45.937Z,20.50
2017-10-19T11:36:46.173Z,20.50
2017-10-19T11:37:46.978Z,23.10
2017-10-19T11:38:46.259Z,24.50
2017-10-19T11:39:45.568Z,22.40
2017-10-19T11:40:45.805Z,26.00
2017-10-19T11:41:45.991Z,40.00
2017-10-19T11:42:46.703Z,20.50
2017-10-19T11:43:46.297Z,23.50
2017-10-19T11:44:46.900Z,30.60
2017-10-19T11:45:46.504Z,23.40
2017-10-19T11:46:46.056Z,23.80
2017-10-19T11:47:47.023Z,21.40
2017-10-19T11:48:46.740Z,24.90
2017-10-19T11:49:46.177Z,21.40
2017-10-19T11:50:46.171Z,26.50
2017-10-19T11:51:46.220Z,23.80
2017-10-19T11:52:46.822Z,25.10
2017-10-19T11:53:46.381Z,20.10
2017-10-19T11:54:45.956Z,24.60
2017-10-19T11:55:46.373Z,19.90
2017-10-19T11:56:45.507Z,21.80
2017-10-19T11:57:45.671Z,19.40
2017-10-19T11:58:45.916Z,21.60
2017-10-19T11:59:47.336Z,26.20
2017-10-19T12:00:46.530Z,23.00
2017-10-19T12:01:46.119Z,19.90
2017-10-19T12:02:46.180Z,22.00
2017-10-19T12:03:46.687Z,25.40
2017-10-19T12:04:45.785Z,21.60
2017-10-19T12:05:46.177Z,23.70
2017-10-19T12:06:47.028Z,22.50
2017-10-19T12:07:46.596Z,19.70
2017-10-19T12:08:45.970Z,20.70
2017-10-19T12:09:46.754Z,21.80
2017-10-19T12:10:46.094Z,27.10
2017-10-19T12:11:46.087Z,22.40
2017-10-19T12:12:45.881Z,25.30
2017-10-19T12:13:46.537Z,28.20
2017-10-19T12:14:46.379Z,24.40
2017-10-19T12:15:45.697Z,27.50
2017-10-19T12:16:46.309Z,22.20
2017-10-19T12:17:47.088Z,24.00
2017-10-19T12:18:47.683Z,20.30
2017-10-19T12:19:45.864Z,26.40
2017-10-19T12:20:46.300Z,26.50
2017-10-19T12:21:45.932Z,26.20
2017-10-19T12:22:46.723Z,21.10
2017-10-19T12:23:46.333Z,21.60
2017-10-19T12:24:45.900Z,22.30
2017-10-19T12:25:46.469Z,20.40
2017-10-19T12:26:46.236Z,24.10
2017-10-19T12:27:46.899Z,23.00
2017-10-19T12:28:46.529Z,23.20
2017-10-19T12:29:46.255Z,20.20
2017-10-19T12:30:45.923Z,20.80
2017-10-19T12:31:46.234Z,23.80
2017-10-19T12:32:45.921Z,20.30
2017-10-19T12:33:46.622Z,20.30
2017-10-19T12:34:46.952Z,25.00
2017-10-19T12:35:46.500Z,23.20
2017-10-19T12:36:46.430Z,23.10
2017-10-19T12:37:45.806Z,19.90
2017-10-19T12:38:45.944Z,22.90
2017-10-19T12:39:46.516Z,22.90